sensor_id;sensor_type;location;lat;lon;timestamp;P1;durP1;ratioP1;P2;durP2;ratioP2
55800;SDS011;41730;51.960;20.158;2022-11-15T00:01:30;42.20;;;20.40;;
55800;SDS011;41730;51.960;20.158;2022-11-15T00:04:02;50.00;;;21.70;;
55800;SDS011;41730;51.960;20.158;2022-11-15T00:06:34;46.80;;;20.60;;
55800;SDS011;41730;51.960;20.158;2022-11-15T00:09:06;41.60;;;18.10;;
55800;SDS011;41730;51.960;20.158;2022-11-15T00:11:38;49.30;;;21.10;;
55800;SDS011;41730;51.960;20.158;2022-11-15T00:14:10;44.10;;;20.30;;
55800;SDS011;41730;51.960;20.158;2022-11-15T00:16:42;41.70;;;19.90;;
55800;SDS011;41730;51.960;20.158;2022-11-15T00:19:14;43.30;;;20.00;;
55800;SDS011;41730;51.960;20.158;2022-11-15T00:21:46;46.00;;;20.80;;
55800;SDS011;41730;51.960;20.158;2022-11-15T00:24:17;47.80;;;22.70;;
55800;SDS011;41730;51.960;20.158;2022-11-15T00:26:49;52.80;;;22.00;;
55800;SDS011;41730;51.960;20.158;2022-11-15T00:29:36;49.30;;;22.60;;
55800;SDS011;41730;51.960;20.158;2022-11-15T00:32:32;49.40;;;22.80;;
55800;SDS011;41730;51.960;20.158;2022-11-15T00:35:04;44.00;;;20.20;;
55800;SDS011;41730;51.960;20.158;2022-11-15T00:37:37;44.90;;;19.60;;
55800;SDS011;41730;51.960;20.158;2022-11-15T00:40:10;47.70;;;21.40;;
55800;SDS011;41730;51.960;20.158;2022-11-15T00:42:42;46.90;;;21.40;;
55800;SDS011;41730;51.960;20.158;2022-11-15T00:45:14;49.90;;;22.20;;
55800;SDS011;41730;51.960;20.158;2022-11-15T00:47:46;43.50;;;21.00;;
55800;SDS011;41730;51.960;20.158;2022-11-15T00:50:18;50.40;;;22.00;;
55800;SDS011;41730;51.960;20.158;2022-11-15T00:52:50;46.40;;;19.60;;
55800;SDS011;41730;51.960;20.158;2022-11-15T00:55:21;50.40;;;21.80;;
55800;SDS011;41730;51.960;20.158;2022-11-15T00:57:58;46.30;;;20.30;;
55800;SDS011;41730;51.960;20.158;2022-11-15T01:00:36;53.40;;;22.90;;
55800;SDS011;41730;51.960;20.158;2022-11-15T01:03:19;49.10;;;21.20;;
55800;SDS011;41730;51.960;20.158;2022-11-15T01:05:56;54.30;;;21.10;;
55800;SDS011;41730;51.960;20.158;2022-11-15T01:08:30;57.90;;;23.40;;
55800;SDS011;41730;51.960;20.158;2022-11-15T01:11:02;51.40;;;23.30;;
55800;SDS011;41730;51.960;20.158;2022-11-15T01:13:37;50.40;;;22.50;;
55800;SDS011;41730;51.960;20.158;2022-11-15T01:16:10;46.30;;;21.20;;
55800;SDS011;41730;51.960;20.158;2022-11-15T01:18:45;54.50;;;23.00;;
55800;SDS011;41730;51.960;20.158;2022-11-15T01:21:17;51.50;;;21.80;;
55800;SDS011;41730;51.960;20.158;2022-11-15T01:23:50;42.80;;;20.50;;
55800;SDS011;41730;51.960;20.158;2022-11-15T01:26:24;53.80;;;23.20;;
55800;SDS011;41730;51.960;20.158;2022-11-15T01:28:56;48.80;;;21.00;;
55800;SDS011;41730;51.960;20.158;2022-11-15T01:31:28;50.40;;;21.00;;
55800;SDS011;41730;51.960;20.158;2022-11-15T01:34:00;48.60;;;20.90;;
55800;SDS011;41730;51.960;20.158;2022-11-15T01:36:32;47.50;;;20.90;;
55800;SDS011;41730;51.960;20.158;2022-11-15T01:39:04;49.00;;;21.30;;
55800;SDS011;41730;51.960;20.158;2022-11-15T01:41:37;45.00;;;20.30;;
55800;SDS011;41730;51.960;20.158;2022-11-15T01:47:17;47.70;;;20.70;;
55800;SDS011;41730;51.960;20.158;2022-11-15T01:49:53;46.20;;;20.70;;
55800;SDS011;41730;51.960;20.158;2022-11-15T01:52:30;47.00;;;21.00;;
55800;SDS011;41730;51.960;20.158;2022-11-15T01:55:05;44.00;;;19.70;;
55800;SDS011;41730;51.960;20.158;2022-11-15T01:57:39;48.50;;;21.80;;
55800;SDS011;41730;51.960;20.158;2022-11-15T02:00:14;47.00;;;21.00;;
55800;SDS011;41730;51.960;20.158;2022-11-15T02:02:46;49.00;;;21.30;;
55800;SDS011;41730;51.960;20.158;2022-11-15T02:05:19;50.60;;;22.50;;
55800;SDS011;41730;51.960;20.158;2022-11-15T02:07:51;51.70;;;21.90;;
55800;SDS011;41730;51.960;20.158;2022-11-15T02:10:23;49.40;;;21.80;;
55800;SDS011;41730;51.960;20.158;2022-11-15T02:12:58;45.40;;;21.10;;
55800;SDS011;41730;51.960;20.158;2022-11-15T02:15:33;52.90;;;22.90;;
55800;SDS011;41730;51.960;20.158;2022-11-15T02:18:12;48.70;;;21.70;;
55800;SDS011;41730;51.960;20.158;2022-11-15T02:20:59;48.80;;;21.50;;
55800;SDS011;41730;51.960;20.158;2022-11-15T02:26:58;48.00;;;21.60;;
55800;SDS011;41730;51.960;20.158;2022-11-15T02:29:54;49.40;;;20.70;;
55800;SDS011;41730;51.960;20.158;2022-11-15T02:32:38;43.40;;;19.00;;
55800;SDS011;41730;51.960;20.158;2022-11-15T02:35:15;44.10;;;19.40;;
55800;SDS011;41730;51.960;20.158;2022-11-15T02:37:55;43.60;;;20.10;;
55800;SDS011;41730;51.960;20.158;2022-11-15T02:40:32;45.70;;;21.80;;
55800;SDS011;41730;51.960;20.158;2022-11-15T02:43:09;44.30;;;19.10;;
55800;SDS011;41730;51.960;20.158;2022-11-15T02:46:03;40.80;;;17.80;;
55800;SDS011;41730;51.960;20.158;2022-11-15T02:48:42;45.70;;;19.50;;
55800;SDS011;41730;51.960;20.158;2022-11-15T02:51:15;42.80;;;19.60;;
55800;SDS011;41730;51.960;20.158;2022-11-15T02:53:48;47.70;;;20.80;;
55800;SDS011;41730;51.960;20.158;2022-11-15T02:56:20;43.50;;;19.60;;
55800;SDS011;41730;51.960;20.158;2022-11-15T02:59:00;45.50;;;19.60;;
55800;SDS011;41730;51.960;20.158;2022-11-15T03:01:49;42.40;;;19.40;;
55800;SDS011;41730;51.960;20.158;2022-11-15T03:04:36;42.10;;;18.70;;
55800;SDS011;41730;51.960;20.158;2022-11-15T03:07:16;46.80;;;21.40;;
55800;SDS011;41730;51.960;20.158;2022-11-15T03:09:56;42.30;;;18.60;;
55800;SDS011;41730;51.960;20.158;2022-11-15T03:12:36;47.30;;;19.50;;
55800;SDS011;41730;51.960;20.158;2022-11-15T03:15:15;46.70;;;19.80;;
55800;SDS011;41730;51.960;20.158;2022-11-15T03:17:52;49.10;;;19.60;;
55800;SDS011;41730;51.960;20.158;2022-11-15T03:20:29;48.20;;;19.50;;
55800;SDS011;41730;51.960;20.158;2022-11-15T03:23:05;45.50;;;19.30;;
55800;SDS011;41730;51.960;20.158;2022-11-15T03:25:40;42.30;;;17.80;;
55800;SDS011;41730;51.960;20.158;2022-11-15T03:28:16;48.00;;;19.20;;
55800;SDS011;41730;51.960;20.158;2022-11-15T03:30:53;45.20;;;19.20;;
55800;SDS011;41730;51.960;20.158;2022-11-15T03:33:28;48.00;;;20.40;;
55800;SDS011;41730;51.960;20.158;2022-11-15T03:36:01;45.50;;;18.70;;
55800;SDS011;41730;51.960;20.158;2022-11-15T03:38:34;51.10;;;19.90;;
55800;SDS011;41730;51.960;20.158;2022-11-15T03:41:08;48.70;;;19.50;;
55800;SDS011;41730;51.960;20.158;2022-11-15T03:43:46;49.30;;;20.80;;
55800;SDS011;41730;51.960;20.158;2022-11-15T03:46:23;55.40;;;21.00;;
55800;SDS011;41730;51.960;20.158;2022-11-15T03:49:00;48.60;;;18.00;;
55800;SDS011;41730;51.960;20.158;2022-11-15T03:51:38;51.50;;;19.90;;
55800;SDS011;41730;51.960;20.158;2022-11-15T03:54:11;47.50;;;18.70;;
55800;SDS011;41730;51.960;20.158;2022-11-15T03:56:43;48.90;;;19.90;;
55800;SDS011;41730;51.960;20.158;2022-11-15T03:59:15;45.80;;;18.30;;
55800;SDS011;41730;51.960;20.158;2022-11-15T04:01:47;42.50;;;18.70;;
55800;SDS011;41730;51.960;20.158;2022-11-15T04:04:19;45.40;;;18.70;;
55800;SDS011;41730;51.960;20.158;2022-11-15T04:06:51;43.90;;;18.10;;
55800;SDS011;41730;51.960;20.158;2022-11-15T04:09:23;45.80;;;18.40;;
55800;SDS011;41730;51.960;20.158;2022-11-15T04:11:55;39.80;;;16.90;;
55800;SDS011;41730;51.960;20.158;2022-11-15T04:14:27;51.00;;;19.60;;
55800;SDS011;41730;51.960;20.158;2022-11-15T04:16:59;44.80;;;18.90;;
55800;SDS011;41730;51.960;20.158;2022-11-15T04:19:31;45.00;;;19.50;;
55800;SDS011;41730;51.960;20.158;2022-11-15T04:22:20;43.20;;;17.00;;
55800;SDS011;41730;51.960;20.158;2022-11-15T04:25:12;44.60;;;18.20;;
55800;SDS011;41730;51.960;20.158;2022-11-15T04:27:58;39.50;;;15.00;;
55800;SDS011;41730;51.960;20.158;2022-11-15T04:30:39;40.60;;;17.30;;
55800;SDS011;41730;51.960;20.158;2022-11-15T04:33:18;42.50;;;17.00;;
55800;SDS011;41730;51.960;20.158;2022-11-15T04:35:50;39.00;;;17.20;;
55800;SDS011;41730;51.960;20.158;2022-11-15T04:38:40;41.60;;;17.00;;
55800;SDS011;41730;51.960;20.158;2022-11-15T04:41:11;40.70;;;17.10;;
55800;SDS011;41730;51.960;20.158;2022-11-15T04:43:43;40.80;;;16.40;;
55800;SDS011;41730;51.960;20.158;2022-11-15T04:46:15;37.80;;;15.80;;
55800;SDS011;41730;51.960;20.158;2022-11-15T04:48:47;43.60;;;16.30;;
55800;SDS011;41730;51.960;20.158;2022-11-15T04:51:25;40.30;;;17.00;;
55800;SDS011;41730;51.960;20.158;2022-11-15T04:53:57;45.10;;;18.00;;
55800;SDS011;41730;51.960;20.158;2022-11-15T04:56:29;43.40;;;17.10;;
55800;SDS011;41730;51.960;20.158;2022-11-15T04:59:01;42.30;;;17.60;;
55800;SDS011;41730;51.960;20.158;2022-11-15T05:01:33;41.00;;;17.50;;
55800;SDS011;41730;51.960;20.158;2022-11-15T05:04:11;43.80;;;18.80;;
55800;SDS011;41730;51.960;20.158;2022-11-15T05:06:50;44.20;;;18.00;;
55800;SDS011;41730;51.960;20.158;2022-11-15T05:09:21;47.50;;;18.30;;
55800;SDS011;41730;51.960;20.158;2022-11-15T05:11:53;39.40;;;18.20;;
55800;SDS011;41730;51.960;20.158;2022-11-15T05:14:25;43.80;;;18.30;;
55800;SDS011;41730;51.960;20.158;2022-11-15T05:16:57;39.80;;;16.90;;
55800;SDS011;41730;51.960;20.158;2022-11-15T05:19:30;37.70;;;16.00;;
55800;SDS011;41730;51.960;20.158;2022-11-15T05:22:02;44.30;;;17.30;;
55800;SDS011;41730;51.960;20.158;2022-11-15T05:24:33;42.40;;;17.30;;
55800;SDS011;41730;51.960;20.158;2022-11-15T05:27:05;38.50;;;16.10;;
55800;SDS011;41730;51.960;20.158;2022-11-15T05:29:37;38.00;;;14.60;;
55800;SDS011;41730;51.960;20.158;2022-11-15T05:32:09;41.60;;;17.00;;
55800;SDS011;41730;51.960;20.158;2022-11-15T05:34:41;39.00;;;16.00;;
55800;SDS011;41730;51.960;20.158;2022-11-15T05:37:14;42.70;;;17.30;;
55800;SDS011;41730;51.960;20.158;2022-11-15T05:39:46;42.00;;;17.20;;
55800;SDS011;41730;51.960;20.158;2022-11-15T05:42:18;41.10;;;16.90;;
55800;SDS011;41730;51.960;20.158;2022-11-15T05:44:50;36.60;;;15.60;;
55800;SDS011;41730;51.960;20.158;2022-11-15T05:47:22;40.20;;;16.10;;
55800;SDS011;41730;51.960;20.158;2022-11-15T05:49:57;39.20;;;16.10;;
55800;SDS011;41730;51.960;20.158;2022-11-15T05:52:29;36.80;;;15.60;;
55800;SDS011;41730;51.960;20.158;2022-11-15T05:55:05;40.70;;;16.00;;
55800;SDS011;41730;51.960;20.158;2022-11-15T05:57:39;40.00;;;16.80;;
55800;SDS011;41730;51.960;20.158;2022-11-15T06:00:12;40.90;;;16.70;;
55800;SDS011;41730;51.960;20.158;2022-11-15T06:02:45;40.50;;;16.70;;
55800;SDS011;41730;51.960;20.158;2022-11-15T06:05:16;40.60;;;16.40;;
55800;SDS011;41730;51.960;20.158;2022-11-15T06:07:48;41.60;;;16.60;;
55800;SDS011;41730;51.960;20.158;2022-11-15T06:10:20;39.00;;;17.10;;
55800;SDS011;41730;51.960;20.158;2022-11-15T06:12:57;41.60;;;16.90;;
55800;SDS011;41730;51.960;20.158;2022-11-15T06:15:31;40.50;;;16.00;;
55800;SDS011;41730;51.960;20.158;2022-11-15T06:18:03;39.40;;;17.40;;
55800;SDS011;41730;51.960;20.158;2022-11-15T06:20:35;41.90;;;16.90;;
55800;SDS011;41730;51.960;20.158;2022-11-15T06:23:06;41.20;;;16.70;;
55800;SDS011;41730;51.960;20.158;2022-11-15T06:25:38;40.30;;;16.90;;
55800;SDS011;41730;51.960;20.158;2022-11-15T06:28:09;40.00;;;16.20;;
55800;SDS011;41730;51.960;20.158;2022-11-15T06:30:41;43.30;;;16.40;;
55800;SDS011;41730;51.960;20.158;2022-11-15T06:33:20;42.30;;;17.30;;
55800;SDS011;41730;51.960;20.158;2022-11-15T06:35:51;41.80;;;15.40;;
55800;SDS011;41730;51.960;20.158;2022-11-15T06:38:23;41.90;;;16.70;;
55800;SDS011;41730;51.960;20.158;2022-11-15T06:40:55;41.10;;;17.00;;
55800;SDS011;41730;51.960;20.158;2022-11-15T06:43:33;46.10;;;17.10;;
55800;SDS011;41730;51.960;20.158;2022-11-15T06:46:06;45.50;;;17.60;;
55800;SDS011;41730;51.960;20.158;2022-11-15T06:48:38;38.70;;;16.10;;
55800;SDS011;41730;51.960;20.158;2022-11-15T06:51:09;44.10;;;17.40;;
55800;SDS011;41730;51.960;20.158;2022-11-15T06:53:41;40.20;;;16.40;;
55800;SDS011;41730;51.960;20.158;2022-11-15T06:56:12;40.80;;;15.80;;
55800;SDS011;41730;51.960;20.158;2022-11-15T06:58:44;39.60;;;15.70;;
55800;SDS011;41730;51.960;20.158;2022-11-15T07:01:15;46.90;;;18.10;;
55800;SDS011;41730;51.960;20.158;2022-11-15T07:03:47;45.30;;;18.00;;
55800;SDS011;41730;51.960;20.158;2022-11-15T07:06:19;55.10;;;19.30;;
55800;SDS011;41730;51.960;20.158;2022-11-15T07:08:51;45.60;;;18.60;;
55800;SDS011;41730;51.960;20.158;2022-11-15T07:11:23;51.70;;;19.50;;
55800;SDS011;41730;51.960;20.158;2022-11-15T07:13:55;47.20;;;18.70;;
55800;SDS011;41730;51.960;20.158;2022-11-15T07:16:27;38.70;;;16.70;;
55800;SDS011;41730;51.960;20.158;2022-11-15T07:18:59;41.70;;;17.00;;
55800;SDS011;41730;51.960;20.158;2022-11-15T07:21:32;34.80;;;15.40;;
55800;SDS011;41730;51.960;20.158;2022-11-15T07:24:04;37.20;;;15.60;;
55800;SDS011;41730;51.960;20.158;2022-11-15T07:26:37;42.50;;;18.40;;
55800;SDS011;41730;51.960;20.158;2022-11-15T07:29:09;41.30;;;17.60;;
55800;SDS011;41730;51.960;20.158;2022-11-15T07:31:41;40.60;;;17.00;;
55800;SDS011;41730;51.960;20.158;2022-11-15T07:34:13;41.60;;;17.30;;
55800;SDS011;41730;51.960;20.158;2022-11-15T07:36:45;39.70;;;16.20;;
55800;SDS011;41730;51.960;20.158;2022-11-15T07:39:17;43.60;;;17.40;;
55800;SDS011;41730;51.960;20.158;2022-11-15T07:41:49;39.50;;;17.30;;
55800;SDS011;41730;51.960;20.158;2022-11-15T07:44:42;40.80;;;18.00;;
55800;SDS011;41730;51.960;20.158;2022-11-15T07:47:14;44.70;;;18.80;;
55800;SDS011;41730;51.960;20.158;2022-11-15T07:49:46;45.50;;;19.70;;
55800;SDS011;41730;51.960;20.158;2022-11-15T07:52:18;44.20;;;18.60;;
55800;SDS011;41730;51.960;20.158;2022-11-15T07:54:49;44.10;;;18.00;;
55800;SDS011;41730;51.960;20.158;2022-11-15T07:57:21;40.80;;;18.30;;
55800;SDS011;41730;51.960;20.158;2022-11-15T07:59:53;38.00;;;18.20;;
55800;SDS011;41730;51.960;20.158;2022-11-15T08:02:24;40.70;;;18.70;;
55800;SDS011;41730;51.960;20.158;2022-11-15T08:04:57;40.90;;;18.80;;
55800;SDS011;41730;51.960;20.158;2022-11-15T08:07:29;36.40;;;17.30;;
55800;SDS011;41730;51.960;20.158;2022-11-15T08:10:02;37.50;;;16.50;;
55800;SDS011;41730;51.960;20.158;2022-11-15T08:12:36;39.00;;;18.20;;
55800;SDS011;41730;51.960;20.158;2022-11-15T08:15:09;37.20;;;16.60;;
55800;SDS011;41730;51.960;20.158;2022-11-15T08:17:41;40.90;;;17.50;;
55800;SDS011;41730;51.960;20.158;2022-11-15T08:20:13;37.30;;;17.30;;
55800;SDS011;41730;51.960;20.158;2022-11-15T08:22:45;38.40;;;17.40;;
55800;SDS011;41730;51.960;20.158;2022-11-15T08:25:17;37.10;;;17.10;;
55800;SDS011;41730;51.960;20.158;2022-11-15T08:27:50;34.90;;;17.00;;
55800;SDS011;41730;51.960;20.158;2022-11-15T08:30:22;36.40;;;17.50;;
55800;SDS011;41730;51.960;20.158;2022-11-15T08:32:55;35.10;;;17.80;;
55800;SDS011;41730;51.960;20.158;2022-11-15T08:35:28;36.90;;;17.20;;
55800;SDS011;41730;51.960;20.158;2022-11-15T08:38:00;39.10;;;16.60;;
55800;SDS011;41730;51.960;20.158;2022-11-15T08:40:32;36.60;;;17.10;;
55800;SDS011;41730;51.960;20.158;2022-11-15T08:43:04;42.00;;;19.40;;
55800;SDS011;41730;51.960;20.158;2022-11-15T08:45:37;34.70;;;16.60;;
55800;SDS011;41730;51.960;20.158;2022-11-15T08:48:09;38.20;;;17.30;;
55800;SDS011;41730;51.960;20.158;2022-11-15T08:50:41;40.80;;;17.60;;
55800;SDS011;41730;51.960;20.158;2022-11-15T08:53:13;35.40;;;16.20;;
55800;SDS011;41730;51.960;20.158;2022-11-15T08:55:44;39.00;;;17.20;;
55800;SDS011;41730;51.960;20.158;2022-11-15T08:58:16;41.70;;;19.20;;
55800;SDS011;41730;51.960;20.158;2022-11-15T09:00:48;36.50;;;17.70;;
55800;SDS011;41730;51.960;20.158;2022-11-15T09:03:20;39.50;;;18.30;;
55800;SDS011;41730;51.960;20.158;2022-11-15T09:05:55;35.20;;;17.40;;
55800;SDS011;41730;51.960;20.158;2022-11-15T09:08:30;41.10;;;18.50;;
55800;SDS011;41730;51.960;20.158;2022-11-15T09:11:17;40.00;;;19.80;;
55800;SDS011;41730;51.960;20.158;2022-11-15T09:13:50;42.90;;;19.30;;
55800;SDS011;41730;51.960;20.158;2022-11-15T09:16:22;37.90;;;18.20;;
55800;SDS011;41730;51.960;20.158;2022-11-15T09:18:53;81.80;;;40.00;;
55800;SDS011;41730;51.960;20.158;2022-11-15T09:21:25;51.00;;;22.50;;
55800;SDS011;41730;51.960;20.158;2022-11-15T09:23:58;40.50;;;19.60;;
55800;SDS011;41730;51.960;20.158;2022-11-15T09:26:30;38.40;;;19.40;;
55800;SDS011;41730;51.960;20.158;2022-11-15T09:29:02;40.40;;;19.40;;
55800;SDS011;41730;51.960;20.158;2022-11-15T09:31:34;39.90;;;18.90;;
55800;SDS011;41730;51.960;20.158;2022-11-15T09:34:06;39.60;;;20.00;;
55800;SDS011;41730;51.960;20.158;2022-11-15T09:36:37;36.00;;;17.70;;
55800;SDS011;41730;51.960;20.158;2022-11-15T09:39:10;38.90;;;18.30;;
55800;SDS011;41730;51.960;20.158;2022-11-15T09:41:50;37.50;;;19.70;;
55800;SDS011;41730;51.960;20.158;2022-11-15T09:47:40;40.20;;;19.80;;
55800;SDS011;41730;51.960;20.158;2022-11-15T09:50:28;43.30;;;21.10;;
55800;SDS011;41730;51.960;20.158;2022-11-15T09:53:08;40.40;;;19.00;;
55800;SDS011;41730;51.960;20.158;2022-11-15T09:56:11;35.70;;;18.30;;
55800;SDS011;41730;51.960;20.158;2022-11-15T09:58:49;39.40;;;18.10;;
55800;SDS011;41730;51.960;20.158;2022-11-15T10:01:31;36.20;;;18.30;;
55800;SDS011;41730;51.960;20.158;2022-11-15T10:04:11;38.60;;;18.90;;
55800;SDS011;41730;51.960;20.158;2022-11-15T10:06:45;38.80;;;18.80;;
55800;SDS011;41730;51.960;20.158;2022-11-15T10:09:24;40.90;;;20.20;;
55800;SDS011;41730;51.960;20.158;2022-11-15T10:11:58;38.00;;;19.70;;
55800;SDS011;41730;51.960;20.158;2022-11-15T10:14:30;35.80;;;18.50;;
55800;SDS011;41730;51.960;20.158;2022-11-15T10:17:17;42.90;;;20.70;;
55800;SDS011;41730;51.960;20.158;2022-11-15T10:20:00;40.20;;;20.20;;
55800;SDS011;41730;51.960;20.158;2022-11-15T10:22:40;40.20;;;20.10;;
55800;SDS011;41730;51.960;20.158;2022-11-15T10:25:20;38.70;;;19.70;;
55800;SDS011;41730;51.960;20.158;2022-11-15T10:27:55;39.00;;;20.40;;
55800;SDS011;41730;51.960;20.158;2022-11-15T10:30:32;36.00;;;19.40;;
55800;SDS011;41730;51.960;20.158;2022-11-15T10:33:13;42.30;;;21.60;;
55800;SDS011;41730;51.960;20.158;2022-11-15T10:35:57;36.60;;;19.20;;
55800;SDS011;41730;51.960;20.158;2022-11-15T10:38:56;38.20;;;20.40;;
55800;SDS011;41730;51.960;20.158;2022-11-15T10:41:34;37.60;;;19.70;;
55800;SDS011;41730;51.960;20.158;2022-11-15T10:49:55;38.60;;;19.90;;
55800;SDS011;41730;51.960;20.158;2022-11-15T10:55:01;37.70;;;20.30;;
55800;SDS011;41730;51.960;20.158;2022-11-15T10:57:50;37.60;;;19.70;;
55800;SDS011;41730;51.960;20.158;2022-11-15T11:03:00;38.00;;;21.20;;
55800;SDS011;41730;51.960;20.158;2022-11-15T11:05:35;39.90;;;20.70;;
55800;SDS011;41730;51.960;20.158;2022-11-15T11:10:58;38.90;;;21.60;;
55800;SDS011;41730;51.960;20.158;2022-11-15T11:13:32;41.80;;;21.70;;
55800;SDS011;41730;51.960;20.158;2022-11-15T11:19:35;38.80;;;20.50;;
55800;SDS011;41730;51.960;20.158;2022-11-15T11:22:29;39.30;;;20.30;;
55800;SDS011;41730;51.960;20.158;2022-11-15T11:25:11;40.30;;;21.50;;
55800;SDS011;41730;51.960;20.158;2022-11-15T11:27:59;35.70;;;19.90;;
55800;SDS011;41730;51.960;20.158;2022-11-15T11:30:47;54.80;;;26.70;;
55800;SDS011;41730;51.960;20.158;2022-11-15T11:33:29;48.10;;;24.30;;
55800;SDS011;41730;51.960;20.158;2022-11-15T11:36:09;48.60;;;25.90;;
55800;SDS011;41730;51.960;20.158;2022-11-15T11:38:55;39.80;;;20.60;;
55800;SDS011;41730;51.960;20.158;2022-11-15T11:41:42;46.90;;;23.60;;
55800;SDS011;41730;51.960;20.158;2022-11-15T11:44:25;43.80;;;23.50;;
55800;SDS011;41730;51.960;20.158;2022-11-15T11:47:03;42.90;;;22.80;;
55800;SDS011;41730;51.960;20.158;2022-11-15T11:49:41;38.20;;;21.60;;
55800;SDS011;41730;51.960;20.158;2022-11-15T11:52:20;44.10;;;23.90;;
55800;SDS011;41730;51.960;20.158;2022-11-15T11:54:59;40.40;;;21.50;;
55800;SDS011;41730;51.960;20.158;2022-11-15T11:57:38;41.20;;;22.50;;
55800;SDS011;41730;51.960;20.158;2022-11-15T12:00:17;39.90;;;22.50;;
55800;SDS011;41730;51.960;20.158;2022-11-15T12:02:54;40.70;;;21.50;;
55800;SDS011;41730;51.960;20.158;2022-11-15T12:05:36;45.00;;;22.40;;
55800;SDS011;41730;51.960;20.158;2022-11-15T12:08:18;43.10;;;22.60;;
55800;SDS011;41730;51.960;20.158;2022-11-15T12:10:57;39.20;;;21.40;;
55800;SDS011;41730;51.960;20.158;2022-11-15T12:13:35;42.30;;;22.70;;
55800;SDS011;41730;51.960;20.158;2022-11-15T12:16:10;43.10;;;22.50;;
55800;SDS011;41730;51.960;20.158;2022-11-15T12:18:47;41.90;;;23.10;;
55800;SDS011;41730;51.960;20.158;2022-11-15T12:23:57;35.70;;;19.90;;
55800;SDS011;41730;51.960;20.158;2022-11-15T12:26:35;42.60;;;22.10;;
55800;SDS011;41730;51.960;20.158;2022-11-15T12:29:12;41.90;;;23.10;;
55800;SDS011;41730;51.960;20.158;2022-11-15T12:31:50;44.10;;;24.10;;
55800;SDS011;41730;51.960;20.158;2022-11-15T12:34:34;44.10;;;23.70;;
55800;SDS011;41730;51.960;20.158;2022-11-15T12:46:18;52.40;;;26.80;;
55800;SDS011;41730;51.960;20.158;2022-11-15T12:48:56;56.10;;;27.40;;
55800;SDS011;41730;51.960;20.158;2022-11-15T12:57:56;49.50;;;27.10;;
55800;SDS011;41730;51.960;20.158;2022-11-15T13:01:12;59.00;;;31.10;;
55800;SDS011;41730;51.960;20.158;2022-11-15T13:04:26;54.70;;;28.70;;
55800;SDS011;41730;51.960;20.158;2022-11-15T13:07:01;57.00;;;30.40;;
55800;SDS011;41730;51.960;20.158;2022-11-15T13:09:52;50.50;;;27.40;;
55800;SDS011;41730;51.960;20.158;2022-11-15T13:15:34;54.60;;;28.30;;
55800;SDS011;41730;51.960;20.158;2022-11-15T13:21:01;56.00;;;27.90;;
55800;SDS011;41730;51.960;20.158;2022-11-15T13:23:57;51.20;;;27.40;;
55800;SDS011;41730;51.960;20.158;2022-11-15T13:26:28;48.90;;;26.70;;
55800;SDS011;41730;51.960;20.158;2022-11-15T13:29:00;51.50;;;28.80;;
55800;SDS011;41730;51.960;20.158;2022-11-15T13:31:36;49.00;;;26.60;;
55800;SDS011;41730;51.960;20.158;2022-11-15T13:37:29;50.70;;;27.10;;
55800;SDS011;41730;51.960;20.158;2022-11-15T13:40:15;41.10;;;22.50;;
55800;SDS011;41730;51.960;20.158;2022-11-15T13:42:59;50.80;;;25.70;;
55800;SDS011;41730;51.960;20.158;2022-11-15T13:45:43;47.00;;;25.50;;
55800;SDS011;41730;51.960;20.158;2022-11-15T13:48:15;46.90;;;25.40;;
55800;SDS011;41730;51.960;20.158;2022-11-15T13:50:46;44.50;;;25.20;;
55800;SDS011;41730;51.960;20.158;2022-11-15T13:53:18;47.50;;;25.80;;
55800;SDS011;41730;51.960;20.158;2022-11-15T13:55:49;47.50;;;26.30;;
55800;SDS011;41730;51.960;20.158;2022-11-15T13:58:25;52.10;;;27.70;;
55800;SDS011;41730;51.960;20.158;2022-11-15T14:00:59;47.30;;;25.40;;
55800;SDS011;41730;51.960;20.158;2022-11-15T14:03:35;51.20;;;26.40;;
55800;SDS011;41730;51.960;20.158;2022-11-15T14:06:16;40.50;;;23.10;;
55800;SDS011;41730;51.960;20.158;2022-11-15T14:09:00;46.70;;;26.40;;
55800;SDS011;41730;51.960;20.158;2022-11-15T14:11:52;45.30;;;25.00;;
55800;SDS011;41730;51.960;20.158;2022-11-15T14:14:26;48.60;;;25.90;;
55800;SDS011;41730;51.960;20.158;2022-11-15T14:16:59;46.90;;;24.30;;
55800;SDS011;41730;51.960;20.158;2022-11-15T14:19:35;44.20;;;25.00;;
55800;SDS011;41730;51.960;20.158;2022-11-15T14:22:09;48.00;;;25.00;;
55800;SDS011;41730;51.960;20.158;2022-11-15T14:24:46;48.90;;;25.30;;
55800;SDS011;41730;51.960;20.158;2022-11-15T14:27:34;45.40;;;24.20;;
55800;SDS011;41730;51.960;20.158;2022-11-15T14:30:06;46.80;;;25.40;;
55800;SDS011;41730;51.960;20.158;2022-11-15T14:32:45;45.30;;;23.80;;
55800;SDS011;41730;51.960;20.158;2022-11-15T14:35:18;47.30;;;23.10;;
55800;SDS011;41730;51.960;20.158;2022-11-15T14:37:51;40.60;;;21.70;;
55800;SDS011;41730;51.960;20.158;2022-11-15T14:40:23;38.80;;;20.90;;
55800;SDS011;41730;51.960;20.158;2022-11-15T14:42:55;36.40;;;21.60;;
55800;SDS011;41730;51.960;20.158;2022-11-15T14:45:27;38.70;;;21.90;;
55800;SDS011;41730;51.960;20.158;2022-11-15T14:47:59;42.60;;;23.20;;
55800;SDS011;41730;51.960;20.158;2022-11-15T14:50:30;41.10;;;22.90;;
55800;SDS011;41730;51.960;20.158;2022-11-15T14:53:04;43.80;;;23.60;;
55800;SDS011;41730;51.960;20.158;2022-11-15T14:55:36;41.30;;;22.20;;
55800;SDS011;41730;51.960;20.158;2022-11-15T14:58:08;43.00;;;22.30;;
55800;SDS011;41730;51.960;20.158;2022-11-15T15:00:40;42.30;;;22.40;;
55800;SDS011;41730;51.960;20.158;2022-11-15T15:03:12;43.70;;;23.80;;
55800;SDS011;41730;51.960;20.158;2022-11-15T15:05:44;48.50;;;23.70;;
55800;SDS011;41730;51.960;20.158;2022-11-15T15:08:16;44.80;;;22.40;;
55800;SDS011;41730;51.960;20.158;2022-11-15T15:10:47;41.70;;;23.00;;
55800;SDS011;41730;51.960;20.158;2022-11-15T15:13:20;48.10;;;23.00;;
55800;SDS011;41730;51.960;20.158;2022-11-15T15:15:55;44.90;;;23.10;;
55800;SDS011;41730;51.960;20.158;2022-11-15T15:18:27;41.60;;;21.70;;
55800;SDS011;41730;51.960;20.158;2022-11-15T15:20:59;38.70;;;22.20;;
55800;SDS011;41730;51.960;20.158;2022-11-15T15:23:35;42.70;;;22.40;;
55800;SDS011;41730;51.960;20.158;2022-11-15T15:26:06;39.30;;;21.10;;
55800;SDS011;41730;51.960;20.158;2022-11-15T15:28:39;38.80;;;21.00;;
55800;SDS011;41730;51.960;20.158;2022-11-15T15:31:11;46.30;;;22.60;;
55800;SDS011;41730;51.960;20.158;2022-11-15T15:33:43;40.20;;;20.90;;
55800;SDS011;41730;51.960;20.158;2022-11-15T15:36:16;43.50;;;24.00;;
55800;SDS011;41730;51.960;20.158;2022-11-15T15:38:49;46.70;;;23.70;;
55800;SDS011;41730;51.960;20.158;2022-11-15T15:41:21;45.20;;;22.20;;
55800;SDS011;41730;51.960;20.158;2022-11-15T15:43:52;47.40;;;24.50;;
55800;SDS011;41730;51.960;20.158;2022-11-15T15:48:57;52.00;;;24.40;;
55800;SDS011;41730;51.960;20.158;2022-11-15T15:51:32;49.80;;;24.20;;
55800;SDS011;41730;51.960;20.158;2022-11-15T15:54:04;43.70;;;23.40;;